TimeAST,TemperatureF,Dew PointF,Humidity,Sea Level PressureIn,VisibilityMPH,Wind Direction,Wind SpeedMPH,Gust SpeedMPH,PrecipitationIn,Events,Conditions,WindDirDegrees,DateUTC
12:00 AM,36.0,34.7,95,29.83,-9999.0,SW,5.8,-,N/A,,Unknown,230,2014-01-17 04:00:00
12:20 AM,35.2,34.2,96,-9999,-9999.0,SW,8.1,-,N/A,,Unknown,230,2014-01-17 04:20:00
12:40 AM,35.1,34.2,97,-9999,-9999.0,SSW,4.6,-,N/A,,Unknown,210,2014-01-17 04:40:00
1:00 AM,35.8,34.7,96,29.83,-9999.0,SSE,1.2,-,N/A,,Unknown,160,2014-01-17 05:00:00
1:20 AM,38.1,37.2,97,-9999,-9999.0,SE,5.8,-,N/A,,Unknown,130,2014-01-17 05:20:00
1:40 AM,39.4,38.5,97,-9999,-9999.0,ESE,5.8,-,N/A,,Unknown,120,2014-01-17 05:40:00
2:00 AM,-29,-36,54,29.86,3,North,16.1,,,,Light Haze,0,2014-01-17 06:00:00
2:00 AM,35.4,34.2,95,29.82,-9999.0,WNW,5.8,-,N/A,,Unknown,300,2014-01-17 06:00:00
2:20 AM,34.5,33.6,97,-9999,-9999.0,WNW,4.6,-,N/A,,Unknown,300,2014-01-17 06:20:00
2:40 AM,33.6,31.3,91,-9999,-9999.0,NW,3.5,-,N/A,,Unknown,320,2014-01-17 06:40:00
3:00 AM,32.9,32.0,96,29.86,-9999.0,NNW,4.6,-,N/A,,Unknown,330,2014-01-17 07:00:00
3:20 AM,33.3,31.6,94,-9999,-9999.0,North,9.2,-,N/A,,Unknown,360,2014-01-17 07:20:00
3:40 AM,33.1,31.6,94,-9999,-9999.0,North,6.9,-,N/A,,Unknown,360,2014-01-17 07:40:00
4:00 AM,33.4,31.5,92,29.88,-9999.0,North,4.6,-,N/A,,Unknown,360,2014-01-17 08:00:00
4:20 AM,33.3,31.6,94,-9999,-9999.0,NNW,4.6,-,N/A,,Unknown,330,2014-01-17 08:20:00
4:40 AM,32.9,32.0,96,-9999,-9999.0,NW,3.5,-,N/A,,Unknown,320,2014-01-17 08:40:00
5:00 AM,32.9,32.0,96,29.89,-9999.0,NNW,2.3,-,N/A,,Unknown,330,2014-01-17 09:00:00
5:20 AM,31.3,32.0,100,-9999,-9999.0,WNW,2.3,-,N/A,,Unknown,300,2014-01-17 09:20:00
5:40 AM,31.3,32.0,100,-9999,-9999.0,NW,2.3,-,N/A,,Unknown,320,2014-01-17 09:40:00
6:00 AM,31.3,31.8,100,29.92,-9999.0,Calm,Calm,-,N/A,,Unknown,0,2014-01-17 10:00:00
6:20 AM,31.3,31.8,100,-9999,-9999.0,SW,3.5,-,N/A,,Unknown,230,2014-01-17 10:20:00
6:40 AM,31.6,31.5,99,-9999,-9999.0,SW,1.2,-,N/A,,Unknown,220,2014-01-17 10:40:00
7:00 AM,31.6,31.6,100,29.96,-9999.0,SW,1.2,-,N/A,,Unknown,230,2014-01-17 11:00:00
7:20 AM,31.6,31.6,100,-9999,-9999.0,SSW,3.5,-,N/A,,Unknown,210,2014-01-17 11:20:00
7:40 AM,31.6,31.6,100,-9999,-9999.0,South,3.5,-,N/A,,Unknown,190,2014-01-17 11:40:00
8:00 AM,-31,-38,52,29.91,3,NNW,15.0,,,,Light Haze,340,2014-01-17 12:00:00
8:00 AM,31.5,31.8,100,29.97,-9999.0,SSW,1.2,-,N/A,,Unknown,210,2014-01-17 12:00:00
8:20 AM,31.5,31.8,100,-9999,-9999.0,WSW,1.2,-,N/A,,Unknown,240,2014-01-17 12:20:00
8:40 AM,31.5,31.8,100,-9999,-9999.0,SW,1.2,-,N/A,,Unknown,220,2014-01-17 12:40:00
9:00 AM,33.4,31.3,92,29.97,-9999.0,WSW,1.2,-,N/A,,Unknown,240,2014-01-17 13:00:00
9:20 AM,33.1,31.6,94,-9999,-9999.0,WSW,6.9,-,N/A,,Unknown,250,2014-01-17 13:20:00
9:40 AM,33.3,31.5,93,-9999,-9999.0,SW,5.8,-,N/A,,Unknown,220,2014-01-17 13:40:00
10:00 AM,33.3,31.6,94,30.00,-9999.0,WSW,6.9,-,N/A,,Unknown,240,2014-01-17 14:00:00
10:20 AM,33.3,31.5,93,-9999,-9999.0,SW,5.8,-,N/A,,Unknown,220,2014-01-17 14:20:00
10:40 AM,34.7,34.0,97,-9999,-9999.0,SSW,4.6,-,N/A,,Unknown,200,2014-01-17 14:40:00
11:00 AM,34.3,33.6,97,30.02,-9999.0,SW,6.9,-,N/A,,Unknown,220,2014-01-17 15:00:00
11:20 AM,34.7,33.8,97,-9999,-9999.0,SW,5.8,-,N/A,,Unknown,220,2014-01-17 15:20:00
11:40 AM,36.0,34.9,96,-9999,-9999.0,SSW,5.8,-,N/A,,Unknown,200,2014-01-17 15:40:00
12:00 PM,32.9,31.8,96,30.02,-9999.0,SW,12.7,-,N/A,,Unknown,220,2014-01-17 16:00:00
12:20 PM,33.6,31.5,92,-9999,-9999.0,SSW,6.9,-,N/A,,Unknown,210,2014-01-17 16:20:00
12:40 PM,34.0,33.1,96,-9999,-9999.0,SW,6.9,-,N/A,,Unknown,220,2014-01-17 16:40:00
1:00 PM,34.3,33.3,96,30.01,-9999.0,SW,6.9,-,N/A,,Unknown,220,2014-01-17 17:00:00
1:20 PM,34.2,33.1,96,-9999,-9999.0,SW,6.9,-,N/A,,Unknown,220,2014-01-17 17:20:00
1:40 PM,32.9,33.4,100,-9999,-9999.0,SSW,4.6,-,N/A,,Unknown,210,2014-01-17 17:40:00
2:00 PM,-40,-48,45,29.91,3,NNW,12.7,,,,Light Haze,330,2014-01-17 18:00:00
2:00 PM,35.8,34.5,95,29.98,-9999.0,WSW,2.3,-,N/A,,Unknown,250,2014-01-17 18:00:00
2:20 PM,35.6,34.2,94,-9999,-9999.0,West,3.5,-,N/A,,Unknown,260,2014-01-17 18:20:00
2:40 PM,35.4,34.0,94,-9999,-9999.0,WNW,2.3,-,N/A,,Unknown,300,2014-01-17 18:40:00
3:00 PM,35.1,33.6,94,29.98,-9999.0,NW,3.5,-,N/A,,Unknown,320,2014-01-17 19:00:00
3:20 PM,34.2,32.9,95,-9999,-9999.0,NNW,1.2,-,N/A,,Unknown,330,2014-01-17 19:20:00
3:40 PM,34.0,31.3,90,-9999,-9999.0,NNE,2.3,-,N/A,,Unknown,20,2014-01-17 19:40:00
4:00 PM,31.5,31.6,100,29.97,-9999.0,NNE,2.3,-,N/A,,Unknown,20,2014-01-17 20:00:00
4:20 PM,-9999,-9999,N/A,-9999,-9999.0,Calm,Calm,-,N/A,,Unknown,0,2014-01-17 20:20:00
4:40 PM,31.6,30.9,97,-9999,-9999.0,NNE,1.2,-,N/A,,Unknown,30,2014-01-17 20:40:00
5:00 PM,31.8,31.3,98,29.99,-9999.0,WSW,4.6,-,N/A,,Unknown,250,2014-01-17 21:00:00
5:20 PM,31.6,30.9,97,-9999,-9999.0,SW,5.8,-,N/A,,Unknown,220,2014-01-17 21:20:00
5:40 PM,31.8,31.5,99,-9999,-9999.0,SW,4.6,-,N/A,,Unknown,230,2014-01-17 21:40:00
6:00 PM,32.0,31.3,97,29.99,-9999.0,WNW,1.2,-,N/A,,Unknown,290,2014-01-17 22:00:00
6:20 PM,-9999,-9999,N/A,-9999,-9999.0,WSW,2.3,-,N/A,,Unknown,240,2014-01-17 22:20:00
6:40 PM,31.5,31.8,100,-9999,-9999.0,SSW,1.2,-,N/A,,Unknown,200,2014-01-17 22:40:00
7:00 PM,32.9,31.8,96,29.99,-9999.0,SSE,2.3,-,N/A,,Unknown,150,2014-01-17 23:00:00
7:20 PM,33.6,32.9,97,-9999,-9999.0,East,1.2,-,N/A,,Unknown,80,2014-01-17 23:20:00
7:40 PM,40.8,38.3,91,-9999,-9999.0,SSE,9.2,-,N/A,,Unknown,160,2014-01-17 23:40:00
8:00 PM,-43,-52,40,29.93,3,WNW,6.9,,,,Light Haze,290,2014-01-18 00:00:00
8:00 PM,41.9,39.0,90,29.98,-9999.0,SSE,9.2,-,N/A,,Unknown,150,2014-01-18 00:00:00
8:20 PM,42.8,39.0,86,-9999,-9999.0,South,9.2,-,N/A,,Unknown,170,2014-01-18 00:20:00
8:40 PM,42.4,38.8,87,-9999,-9999.0,SSE,8.1,-,N/A,,Unknown,150,2014-01-18 00:40:00
9:00 PM,42.4,39.0,88,29.98,-9999.0,South,6.9,-,N/A,,Unknown,170,2014-01-18 01:00:00
9:20 PM,42.4,38.8,87,-9999,-9999.0,South,6.9,-,N/A,,Unknown,170,2014-01-18 01:20:00
9:40 PM,42.3,38.8,88,-9999,-9999.0,SSE,5.8,-,N/A,,Unknown,160,2014-01-18 01:40:00
10:00 PM,41.7,38.1,87,29.97,-9999.0,SE,8.1,-,N/A,,Unknown,140,2014-01-18 02:00:00
10:20 PM,41.5,38.1,88,-9999,-9999.0,SE,10.4,-,N/A,,Unknown,140,2014-01-18 02:20:00
10:40 PM,42.1,38.1,86,-9999,-9999.0,SE,12.7,19.6,N/A,,Unknown,140,2014-01-18 02:40:00
11:00 PM,40.1,38.1,93,29.94,-9999.0,SE,15.0,-,N/A,,Unknown,130,2014-01-18 03:00:00
11:20 PM,42.8,38.5,85,-9999,-9999.0,SE,12.7,-,N/A,,Unknown,140,2014-01-18 03:20:00
11:40 PM,42.6,38.3,85,-9999,-9999.0,SE,12.7,19.6,N/A,,Unknown,140,2014-01-18 03:40:00